createdAt,value
2019-03-23T00:01:05.663Z,100049.63
2019-03-23T00:03:36.539Z,100044.45
2019-03-23T00:06:07.308Z,100050.77
2019-03-23T00:08:38.308Z,100048.95
2019-03-23T00:11:09.139Z,100049.54
2019-03-23T00:13:40.101Z,100050.80
2019-03-23T00:16:11.034Z,100049.02
2019-03-23T00:18:41.875Z,100037.73
2019-03-23T00:21:12.733Z,100039.71
2019-03-23T00:23:43.601Z,100035.06
2019-03-23T00:26:14.379Z,100032.94
2019-03-23T00:28:46.344Z,100024.12
2019-03-23T00:31:17.209Z,100026.80
2019-03-23T00:33:48.095Z,100022.57
2019-03-23T00:36:18.940Z,100016.92
2019-03-23T00:38:49.954Z,100019.69
2019-03-23T00:41:21.107Z,100014.39
2019-03-23T00:43:52.888Z,100012.91
2019-03-23T00:46:23.791Z,100006.16
2019-03-23T00:48:54.688Z,100004.45
2019-03-23T00:51:25.558Z,99996.86
2019-03-23T00:53:56.388Z,99994.48
2019-03-23T00:56:28.111Z,100000.93
2019-03-23T00:58:59.050Z,99998.83
2019-03-23T01:01:29.975Z,99989.91
2019-03-23T01:04:00.788Z,99991.55
2019-03-23T01:06:31.595Z,99988.59
2019-03-23T01:09:02.588Z,99985.91
2019-03-23T01:11:33.952Z,99984.46
2019-03-23T01:14:05.005Z,99989.01
2019-03-23T01:16:35.802Z,99985.84
2019-03-23T01:19:06.695Z,99980.38
2019-03-23T01:21:37.606Z,99978.78
2019-03-23T01:24:08.572Z,99967.94
2019-03-23T01:26:39.469Z,99967.99
2019-03-23T01:29:10.247Z,99972.72
2019-03-23T01:31:41.086Z,99969.08
2019-03-23T01:34:11.891Z,99968.86
2019-03-23T01:36:42.648Z,99972.34
2019-03-23T01:39:13.698Z,99970.02
2019-03-23T01:41:44.494Z,99962.06
2019-03-23T01:44:15.250Z,99962.69
2019-03-23T01:46:45.974Z,99958.23
2019-03-23T01:49:16.774Z,99963.56
2019-03-23T01:51:47.674Z,99964.91
2019-03-23T01:54:18.485Z,99952.16
2019-03-23T01:56:49.255Z,99947.69
2019-03-23T01:59:20.054Z,99954.90
2019-03-23T02:01:50.987Z,99952.34
2019-03-23T02:04:23.033Z,99946.47
2019-03-23T02:06:53.788Z,99946.73
2019-03-23T02:09:25.727Z,99948.00
2019-03-23T02:11:56.528Z,99942.74
2019-03-23T02:14:27.442Z,99947.50
2019-03-23T02:16:58.242Z,99944.33
2019-03-23T02:19:29.917Z,99945.18
2019-03-23T02:22:00.785Z,99941.34
2019-03-23T02:24:31.723Z,99946.75
2019-03-23T02:27:02.523Z,99940.56
2019-03-23T02:29:33.397Z,99939.48
2019-03-23T02:32:04.288Z,99942.08
2019-03-23T02:34:35.605Z,99939.41
2019-03-23T02:37:06.437Z,99943.97
2019-03-23T02:39:37.303Z,99943.57
2019-03-23T02:42:08.264Z,99942.10
2019-03-23T02:44:39.089Z,99939.77
2019-03-23T02:47:09.842Z,99931.44
2019-03-23T02:49:40.651Z,99928.47
2019-03-23T02:52:11.565Z,99932.17
2019-03-23T02:54:42.568Z,99932.98
2019-03-23T02:57:13.389Z,99936.65
2019-03-23T02:59:44.267Z,99925.97
2019-03-23T03:02:15.153Z,99928.12
2019-03-23T03:04:45.943Z,99927.89
2019-03-23T03:07:16.717Z,99929.55
2019-03-23T03:09:49.086Z,99922.14
2019-03-23T03:12:19.930Z,99925.41
2019-03-23T03:14:51.270Z,99919.11
2019-03-23T03:17:22.068Z,99917.59
2019-03-23T03:19:54.625Z,99919.66
2019-03-23T03:22:25.341Z,99917.31
2019-03-23T03:24:56.426Z,99918.23
2019-03-23T03:27:27.228Z,99925.80
2019-03-23T03:29:58.534Z,99927.11
2019-03-23T03:32:29.335Z,99920.96
2019-03-23T03:35:00.675Z,99918.50
2019-03-23T03:37:31.524Z,99923.48
2019-03-23T03:40:02.369Z,99926.21
2019-03-23T03:42:34.302Z,99919.42
2019-03-23T03:45:05.368Z,99919.39
2019-03-23T03:47:36.177Z,99915.42
2019-03-23T03:50:08.140Z,99918.33
2019-03-23T03:52:39.005Z,99919.48
2019-03-23T03:55:09.923Z,99916.14
2019-03-23T03:57:40.701Z,99911.47
2019-03-23T04:00:11.714Z,99908.09
2019-03-23T04:02:42.505Z,99908.23
2019-03-23T04:05:13.376Z,99907.95
2019-03-23T04:07:44.229Z,99907.88
2019-03-23T04:10:16.668Z,99902.22
2019-03-23T04:12:47.489Z,99897.76
2019-03-23T04:15:18.967Z,99903.55
2019-03-23T04:17:49.776Z,99895.11
2019-03-23T04:20:20.567Z,99892.65
2019-03-23T04:22:51.396Z,99894.84
2019-03-23T04:25:22.508Z,99891.54
2019-03-23T04:27:53.313Z,99895.55
2019-03-23T04:30:24.108Z,99891.89
2019-03-23T04:32:54.923Z,99894.27
2019-03-23T04:35:25.810Z,99888.69
2019-03-23T04:37:56.592Z,99893.41
2019-03-23T04:40:27.619Z,99893.66
2019-03-23T04:42:58.408Z,99894.20
2019-03-23T04:45:29.266Z,99892.88
2019-03-23T04:48:00.060Z,99886.81
2019-03-23T04:50:32.027Z,99891.02
2019-03-23T04:53:02.881Z,99892.66
2019-03-23T04:55:33.891Z,99888.50
2019-03-23T04:58:05.086Z,99884.80
2019-03-23T05:00:37.034Z,99885.86
2019-03-23T05:03:07.776Z,99894.09
2019-03-23T05:05:38.671Z,99895.35
2019-03-23T05:08:09.508Z,99895.37
2019-03-23T05:10:40.306Z,99893.80
2019-03-23T05:13:11.565Z,99888.59
2019-03-23T05:15:43.851Z,99890.33
2019-03-23T05:18:15.673Z,99884.96
2019-03-23T05:20:46.503Z,99886.35
2019-03-23T05:23:17.249Z,99889.61
2019-03-23T05:25:48.303Z,99883.02
2019-03-23T05:28:19.052Z,99878.41
2019-03-23T05:30:50.942Z,99876.55
2019-03-23T05:33:21.702Z,99874.80
2019-03-23T05:35:52.560Z,99878.23
2019-03-23T05:38:23.365Z,99887.24
2019-03-23T05:40:54.370Z,99893.89
2019-03-23T05:43:25.112Z,99895.58
2019-03-23T05:45:55.985Z,99902.12
2019-03-23T05:48:26.700Z,99898.50
2019-03-23T05:50:57.523Z,99897.22
2019-03-23T05:53:28.302Z,99903.02
2019-03-23T05:55:59.277Z,99898.36
2019-03-23T05:58:30.085Z,99892.34
2019-03-23T06:01:00.982Z,99891.88
2019-03-23T06:03:31.702Z,99895.51
2019-03-23T06:06:02.532Z,99897.36
2019-03-23T06:08:33.324Z,99893.17
2019-03-23T06:11:04.256Z,99894.29
2019-03-23T06:13:34.998Z,99887.05
2019-03-23T06:16:06.092Z,99881.31
2019-03-23T06:18:36.894Z,99889.39
2019-03-23T06:21:07.664Z,99890.86
2019-03-23T06:23:38.483Z,99882.17
2019-03-23T06:26:09.355Z,99892.18
2019-03-23T06:28:40.086Z,99890.31
2019-03-23T06:31:10.830Z,99885.92
2019-03-23T06:33:41.595Z,99882.91
2019-03-23T06:36:12.441Z,99884.56
2019-03-23T06:38:43.143Z,99883.72
2019-03-23T06:41:14.146Z,99880.23
2019-03-23T06:43:44.878Z,99881.56
2019-03-23T06:46:15.684Z,99881.78
2019-03-23T06:48:46.462Z,99880.28
2019-03-23T06:51:17.258Z,99893.13
2019-03-23T06:53:48.001Z,99885.10
2019-03-23T06:56:19.031Z,99880.20
2019-03-23T06:58:49.764Z,99882.36
2019-03-23T07:01:20.541Z,99881.11
2019-03-23T07:03:51.271Z,99876.20
2019-03-23T07:06:22.145Z,99868.77
2019-03-23T07:08:52.902Z,99863.67
2019-03-23T07:11:23.818Z,99861.45
2019-03-23T07:13:54.575Z,99867.13
2019-03-23T07:16:25.600Z,99869.48
2019-03-23T07:18:56.331Z,99858.55
2019-03-23T07:21:27.135Z,99860.34
2019-03-23T07:23:57.910Z,99858.73
2019-03-23T07:26:28.767Z,99854.89
2019-03-23T07:28:59.493Z,99858.67
2019-03-23T07:31:30.296Z,99857.16
2019-03-23T07:34:01.059Z,99859.84
2019-03-23T07:36:31.876Z,99854.78
2019-03-23T07:39:02.655Z,99849.17
2019-03-23T07:41:33.537Z,99845.41
2019-03-23T07:44:04.395Z,99846.10
2019-03-23T07:46:35.293Z,99844.41
2019-03-23T07:49:06.163Z,99851.84
2019-03-23T07:51:36.947Z,99851.88
2019-03-23T07:54:07.722Z,99841.67
2019-03-23T07:56:38.700Z,99845.01
2019-03-23T07:59:09.474Z,99850.86
2019-03-23T08:01:40.272Z,99846.91
2019-03-23T08:04:11.061Z,99849.90
2019-03-23T08:06:41.907Z,99849.13
2019-03-23T08:09:20.368Z,99845.06
2019-03-23T08:11:45.209Z,99853.11
2019-03-23T08:14:16.027Z,99845.16
2019-03-23T08:16:48.323Z,99844.38
2019-03-23T08:19:19.093Z,99835.73
2019-03-23T08:21:50.007Z,99844.42
2019-03-23T08:24:20.786Z,99843.31
2019-03-23T08:26:51.693Z,99845.47
2019-03-23T08:29:22.473Z,99845.47
2019-03-23T08:31:54.509Z,99842.78
2019-03-23T08:34:25.484Z,99843.54
2019-03-23T08:36:56.356Z,99833.13
2019-03-23T08:39:27.145Z,99830.41
2019-03-23T08:41:57.958Z,99830.68
2019-03-23T08:44:28.719Z,99823.70
2019-03-23T08:47:00.626Z,99821.66
2019-03-23T08:49:31.738Z,99829.41
2019-03-23T08:52:02.518Z,99825.41
2019-03-23T08:54:33.269Z,99830.63
2019-03-23T08:57:04.209Z,99828.94
2019-03-23T08:59:35.010Z,99822.95
2019-03-23T09:02:05.975Z,99824.80
2019-03-23T09:04:36.820Z,99821.25
2019-03-23T09:07:07.659Z,99820.59
2019-03-23T09:09:38.355Z,99813.63
2019-03-23T09:12:09.315Z,99819.24
2019-03-23T09:14:41.129Z,99819.64
2019-03-23T09:17:12.308Z,99818.25
2019-03-23T09:19:43.065Z,99823.09
2019-03-23T09:22:15.007Z,99817.05
2019-03-23T09:24:45.817Z,99812.53
2019-03-23T09:27:16.684Z,99811.44
2019-03-23T09:29:47.439Z,99809.61
2019-03-23T09:32:18.267Z,99819.09
2019-03-23T09:34:48.994Z,99802.78
2019-03-23T09:37:19.811Z,99817.06
2019-03-23T09:39:50.566Z,99804.07
2019-03-23T09:42:21.352Z,99808.42
2019-03-23T09:44:52.129Z,99808.18
2019-03-23T09:47:23.140Z,99812.55
2019-03-23T09:50:03.240Z,99812.27
2019-03-23T09:52:34.079Z,99815.16
2019-03-23T09:55:04.982Z,99809.39
2019-03-23T09:57:35.845Z,99812.61
2019-03-23T10:00:07.594Z,99807.73
2019-03-23T10:02:38.429Z,99802.33
2019-03-23T10:05:09.694Z,99808.59
2019-03-23T10:07:40.501Z,99809.16
2019-03-23T10:10:21.268Z,99808.75
2019-03-23T10:12:44.333Z,99798.80
2019-03-23T10:15:15.693Z,99799.12
2019-03-23T10:17:46.906Z,99799.71
2019-03-23T10:20:17.703Z,99797.69
2019-03-23T10:22:48.519Z,99789.66
2019-03-23T10:25:19.267Z,99789.66
2019-03-23T10:27:50.589Z,99786.25
2019-03-23T10:30:21.479Z,99799.09
2019-03-23T10:32:52.354Z,99788.60
2019-03-23T10:35:23.114Z,99797.67
2019-03-23T10:37:53.848Z,99793.77
2019-03-23T10:40:32.513Z,99794.92
2019-03-23T10:42:57.442Z,99794.77
2019-03-23T10:45:28.204Z,99788.80
2019-03-23T10:47:59.043Z,99788.80
2019-03-23T10:50:29.968Z,99786.56
2019-03-23T10:53:00.742Z,99791.81
2019-03-23T10:55:31.463Z,99787.69
2019-03-23T10:58:02.443Z,99794.23
2019-03-23T11:00:33.203Z,99799.58
2019-03-23T11:03:04.067Z,99792.70
2019-03-23T11:05:34.904Z,99793.77
2019-03-23T11:08:05.839Z,99793.77
2019-03-23T11:10:41.776Z,99788.30
2019-03-23T11:13:09.444Z,99785.70
2019-03-23T11:15:40.180Z,99791.19
2019-03-23T11:18:11.359Z,99794.97
2019-03-23T11:20:42.195Z,99789.48
2019-03-23T11:23:12.969Z,99784.19
2019-03-23T11:25:43.770Z,99784.08
2019-03-23T11:28:14.773Z,99788.89
2019-03-23T11:30:45.608Z,99776.92
2019-03-23T11:33:16.430Z,99776.20
2019-03-23T11:35:57.257Z,99784.44
2019-03-23T11:38:19.657Z,99782.02
2019-03-23T11:40:54.946Z,99786.77
2019-03-23T11:43:23.210Z,99778.56
2019-03-23T11:45:54.053Z,99773.34
2019-03-23T11:48:24.883Z,99768.80
2019-03-23T11:50:55.758Z,99775.66
2019-03-23T11:53:26.540Z,99771.27
2019-03-23T11:55:57.284Z,99774.44
2019-03-23T11:58:28.095Z,99772.94
2019-03-23T12:00:58.969Z,99771.91
2019-03-23T12:03:29.823Z,99771.20
2019-03-23T12:06:00.571Z,99776.56
2019-03-23T12:08:31.355Z,99771.53
2019-03-23T12:11:03.173Z,99780.05
2019-03-23T12:13:34.309Z,99770.59
2019-03-23T12:16:05.220Z,99773.70
2019-03-23T12:18:36.182Z,99774.63
2019-03-23T12:21:06.990Z,99767.11
2019-03-23T12:23:37.911Z,99778.19
2019-03-23T12:26:08.661Z,99764.94
2019-03-23T12:28:39.581Z,99764.95
2019-03-23T12:31:10.370Z,99765.64
2019-03-23T12:33:41.157Z,99766.96
2019-03-23T12:36:11.880Z,99775.94
2019-03-23T12:38:42.666Z,99770.02
2019-03-23T12:41:22.985Z,99767.67
2019-03-23T12:43:47.154Z,99764.73
2019-03-23T12:46:17.917Z,99773.10
2019-03-23T12:48:50.333Z,99767.04
2019-03-23T12:51:22.216Z,99768.95
2019-03-23T12:53:53.001Z,99769.08
2019-03-23T12:56:23.836Z,99763.81
2019-03-23T12:58:54.678Z,99768.80
2019-03-23T13:01:25.511Z,99768.08
2019-03-23T13:03:56.315Z,99760.84
2019-03-23T13:06:27.077Z,99761.28
2019-03-23T13:08:57.929Z,99758.52
2019-03-23T13:11:34.830Z,99758.25
2019-03-23T13:14:01.276Z,99751.00
2019-03-23T13:16:32.077Z,99746.51
2019-03-23T13:19:04.218Z,99748.58
2019-03-23T13:21:37.343Z,99743.36
2019-03-23T13:24:08.231Z,99747.05
2019-03-23T13:26:39.918Z,99747.98
2019-03-23T13:29:10.885Z,99740.28
2019-03-23T13:31:41.767Z,99737.38
2019-03-23T13:34:13.982Z,99739.41
2019-03-23T13:36:44.782Z,99736.01
2019-03-23T13:39:15.650Z,99738.59
2019-03-23T13:41:58.068Z,99741.25
2019-03-23T13:44:30.769Z,99736.63
2019-03-23T13:47:01.527Z,99731.98
2019-03-23T13:49:32.338Z,99741.84
2019-03-23T13:52:03.198Z,99740.99
2019-03-23T13:54:34.110Z,99750.14
2019-03-23T13:57:04.871Z,99738.83
2019-03-23T13:59:37.271Z,99741.37
2019-03-23T14:02:08.153Z,99740.77
2019-03-23T14:04:39.040Z,99734.66
2019-03-23T14:07:09.799Z,99733.94
2019-03-23T14:09:40.615Z,99736.86
2019-03-23T14:12:11.408Z,99742.02
2019-03-23T14:14:43.333Z,99741.73
2019-03-23T14:17:14.168Z,99748.66
2019-03-23T14:19:45.409Z,99733.30
2019-03-23T14:22:16.275Z,99738.91
2019-03-23T14:24:47.090Z,99733.35
2019-03-23T14:27:17.885Z,99734.70
2019-03-23T14:29:48.798Z,99734.76
2019-03-23T14:32:19.617Z,99736.11
2019-03-23T14:34:50.420Z,99740.14
2019-03-23T14:37:21.213Z,99722.24
2019-03-23T14:39:51.994Z,99739.47
2019-03-23T14:42:22.839Z,99733.94
2019-03-23T14:44:53.744Z,99735.28
2019-03-23T14:47:24.607Z,99734.55
2019-03-23T14:49:55.475Z,99737.92
2019-03-23T14:52:26.328Z,99731.11
2019-03-23T14:54:57.139Z,99746.58
2019-03-23T14:57:29.132Z,99741.05
2019-03-23T15:00:00.298Z,99731.85
2019-03-23T15:02:31.119Z,99737.73
2019-03-23T15:05:02.014Z,99730.00
2019-03-23T15:07:33.985Z,99732.98
2019-03-23T15:10:05.679Z,99738.12
2019-03-23T15:12:36.530Z,99734.78
2019-03-23T15:15:07.646Z,99739.03
2019-03-23T15:17:48.458Z,99746.39
2019-03-23T15:20:12.814Z,99744.25
2019-03-23T15:22:43.710Z,99742.63
2019-03-23T15:25:14.503Z,99742.97
2019-03-23T15:27:45.253Z,99734.43
2019-03-23T15:30:16.051Z,99735.20
2019-03-23T15:32:49.201Z,99737.91
2019-03-23T15:35:19.948Z,99738.53
2019-03-23T15:37:50.697Z,99731.84
2019-03-23T15:40:21.478Z,99739.70
2019-03-23T15:42:52.312Z,99734.53
2019-03-23T15:45:23.598Z,99736.31
2019-03-23T15:47:55.387Z,99739.36
2019-03-23T15:50:26.203Z,99737.18
2019-03-23T15:52:57.036Z,99743.19
2019-03-23T15:55:28.850Z,99741.61
2019-03-23T15:58:00.709Z,99735.34
2019-03-23T16:00:31.843Z,99743.92
2019-03-23T16:03:02.679Z,99742.79
2019-03-23T16:05:34.704Z,99744.69
2019-03-23T16:08:05.448Z,99748.02
2019-03-23T16:10:37.295Z,99756.19
2019-03-23T16:13:08.138Z,99752.62
2019-03-23T16:15:39.345Z,99746.43
2019-03-23T16:18:10.100Z,99757.30
2019-03-23T16:20:41.313Z,99749.98
2019-03-23T16:23:12.105Z,99756.19
2019-03-23T16:25:43.002Z,99740.59
2019-03-23T16:28:13.755Z,99744.52
2019-03-23T16:30:44.554Z,99751.74
2019-03-23T16:33:15.377Z,99753.95
2019-03-23T16:35:46.246Z,99759.28
2019-03-23T16:38:17.074Z,99759.67
2019-03-23T16:40:47.858Z,99753.34
2019-03-23T16:43:18.597Z,99761.97
2019-03-23T16:45:49.589Z,99762.14
2019-03-23T16:48:20.347Z,99766.69
2019-03-23T16:50:51.174Z,99766.64
2019-03-23T16:53:21.875Z,99766.09
2019-03-23T16:55:52.718Z,99771.35
2019-03-23T16:58:23.478Z,99764.16
2019-03-23T17:00:54.380Z,99767.31
2019-03-23T17:03:25.127Z,99766.56
2019-03-23T17:05:55.962Z,99773.40
2019-03-23T17:08:26.712Z,99776.49
2019-03-23T17:10:57.447Z,99785.75
2019-03-23T17:13:28.297Z,99787.45
2019-03-23T17:15:59.272Z,99794.13
2019-03-23T17:18:30.134Z,99795.25
2019-03-23T17:21:01.284Z,99805.22
2019-03-23T17:23:32.148Z,99805.39
2019-03-23T17:26:02.976Z,99813.39
2019-03-23T17:28:33.822Z,99820.17
2019-03-23T17:31:04.607Z,99820.07
2019-03-23T17:33:35.392Z,99823.55
2019-03-23T17:36:06.263Z,99829.07
2019-03-23T17:38:38.198Z,99834.42
2019-03-23T17:41:10.380Z,99845.05
2019-03-23T17:43:41.419Z,99839.69
2019-03-23T17:46:12.484Z,99851.00
2019-03-23T17:48:43.382Z,99860.03
2019-03-23T17:51:14.155Z,99866.86
2019-03-23T17:53:44.929Z,99871.20
2019-03-23T17:56:15.719Z,99877.91
2019-03-23T17:58:46.481Z,99879.64
2019-03-23T18:01:19.598Z,99886.23
2019-03-23T18:03:50.613Z,99893.01
2019-03-23T18:06:21.478Z,99899.11
2019-03-23T18:08:52.201Z,99900.73
2019-03-23T18:11:23.034Z,99905.43
2019-03-23T18:13:53.833Z,99909.19
2019-03-23T18:16:25.038Z,99909.81
2019-03-23T18:18:55.882Z,99910.77
2019-03-23T18:21:26.950Z,99925.25
2019-03-23T18:23:57.718Z,99920.38
2019-03-23T18:26:28.492Z,99930.69
2019-03-23T18:28:59.297Z,99937.81
2019-03-23T18:31:30.062Z,99936.77
2019-03-23T18:34:00.817Z,99947.25
2019-03-23T18:36:31.665Z,99940.10
2019-03-23T18:39:04.778Z,99946.89
2019-03-23T18:41:35.758Z,99951.20
2019-03-23T18:44:15.745Z,99962.84
2019-03-23T18:46:39.233Z,99968.55
2019-03-23T18:49:10.026Z,99971.42
2019-03-23T18:51:40.789Z,99972.78
2019-03-23T18:54:11.539Z,99982.28
2019-03-23T18:56:42.293Z,99984.70
2019-03-23T18:59:13.137Z,99989.05
2019-03-23T19:01:43.933Z,99999.22
2019-03-23T19:04:14.686Z,100002.26
2019-03-23T19:06:45.456Z,100008.11
2019-03-23T19:09:16.254Z,100012.69
2019-03-23T19:11:47.047Z,100019.94
2019-03-23T19:14:17.825Z,100011.85
2019-03-23T19:16:48.639Z,100027.80
2019-03-23T19:19:19.399Z,100032.94
2019-03-23T19:21:51.753Z,100032.89
2019-03-23T19:24:22.509Z,100044.06
2019-03-23T19:26:53.279Z,100044.09
2019-03-23T19:29:24.029Z,100050.16
2019-03-23T19:31:55.013Z,100056.05
2019-03-23T19:34:25.757Z,100060.24
2019-03-23T19:36:56.658Z,100057.75
2019-03-23T19:39:27.469Z,100069.94
2019-03-23T19:41:58.338Z,100064.77
2019-03-23T19:44:29.106Z,100065.13
2019-03-23T19:46:59.935Z,100075.72
2019-03-23T19:49:30.695Z,100077.80
2019-03-23T19:52:01.520Z,100080.51
2019-03-23T19:54:32.342Z,100090.30
2019-03-23T19:57:03.162Z,100091.14
2019-03-23T19:59:33.925Z,100091.70
2019-03-23T20:02:04.954Z,100095.60
2019-03-23T20:04:35.739Z,100099.73
2019-03-23T20:07:06.717Z,100105.75
2019-03-23T20:09:37.517Z,100097.75
2019-03-23T20:12:10.000Z,100106.45
2019-03-23T20:14:41.726Z,100105.03
2019-03-23T20:17:12.719Z,100109.86
2019-03-23T20:19:43.449Z,100105.05
2019-03-23T20:22:14.674Z,100111.66
2019-03-23T20:24:45.430Z,100114.03
2019-03-23T20:27:16.276Z,100106.48
2019-03-23T20:29:47.062Z,100108.92
2019-03-23T20:32:18.015Z,100108.48
2019-03-23T20:34:48.759Z,100102.84
2019-03-23T20:37:19.542Z,100104.82
2019-03-23T20:39:50.307Z,100101.59
2019-03-23T20:42:21.173Z,100104.95
2019-03-23T20:44:51.905Z,100107.43
2019-03-23T20:47:22.733Z,100107.16
2019-03-23T20:49:54.362Z,100109.09
2019-03-23T20:52:25.262Z,100110.95
2019-03-23T20:54:56.305Z,100113.62
2019-03-23T20:57:36.991Z,100118.42
2019-03-23T20:59:59.640Z,100113.08
2019-03-23T21:02:30.492Z,100108.81
2019-03-23T21:05:01.226Z,100113.88
2019-03-23T21:07:32.056Z,100114.68
2019-03-23T21:10:02.847Z,100109.58
2019-03-23T21:12:33.725Z,100107.23
2019-03-23T21:15:04.645Z,100108.83
2019-03-23T21:17:35.641Z,100105.09
2019-03-23T21:20:07.517Z,100105.09
2019-03-23T21:22:38.581Z,100110.94
2019-03-23T21:25:09.552Z,100104.83
2019-03-23T21:27:40.334Z,100101.37
2019-03-23T21:30:13.902Z,100099.48
2019-03-23T21:32:44.902Z,100096.59
2019-03-23T21:35:16.057Z,100096.56
2019-03-23T21:37:46.944Z,100094.45
2019-03-23T21:40:17.735Z,100095.27
2019-03-23T21:42:49.092Z,100094.97
2019-03-23T21:45:19.871Z,100090.45
2019-03-23T21:47:51.057Z,100096.05
2019-03-23T21:50:21.834Z,100086.20
2019-03-23T21:52:52.660Z,100091.50
2019-03-23T21:55:23.418Z,100086.12
2019-03-23T21:57:55.274Z,100081.66
2019-03-23T22:00:33.902Z,100080.53
2019-03-23T22:03:04.909Z,100083.02
2019-03-23T22:05:35.744Z,100082.91
2019-03-23T22:08:06.503Z,100085.13
2019-03-23T22:10:37.280Z,100087.23
2019-03-23T22:13:08.087Z,100084.57
2019-03-23T22:15:38.901Z,100090.98
2019-03-23T22:18:09.688Z,100082.74
2019-03-23T22:20:41.408Z,100086.70
2019-03-23T22:23:12.421Z,100087.78
2019-03-23T22:25:44.873Z,100080.28
2019-03-23T22:28:15.740Z,100079.23
2019-03-23T22:30:46.510Z,100080.36
2019-03-23T22:33:17.396Z,100084.09
2019-03-23T22:35:48.227Z,100080.89
2019-03-23T22:38:19.018Z,100081.09
2019-03-23T22:40:49.851Z,100078.96
2019-03-23T22:43:20.666Z,100074.44
2019-03-23T22:45:51.556Z,100073.17
2019-03-23T22:48:22.352Z,100071.57
2019-03-23T22:50:53.137Z,100077.56
2019-03-23T22:53:23.867Z,100077.80
2019-03-23T22:55:54.676Z,100075.46
2019-03-23T22:58:25.452Z,100069.34
2019-03-23T23:00:56.313Z,100074.69
2019-03-23T23:03:27.184Z,100070.25
2019-03-23T23:05:57.997Z,100069.98
2019-03-23T23:08:28.767Z,100072.62
2019-03-23T23:11:00.576Z,100076.62
2019-03-23T23:13:31.336Z,100070.50
2019-03-23T23:16:02.155Z,100063.05
2019-03-23T23:18:33.127Z,100074.22
2019-03-23T23:21:03.878Z,100073.63
2019-03-23T23:23:34.988Z,100078.73
2019-03-23T23:26:06.764Z,100073.17
2019-03-23T23:28:37.576Z,100069.19
2019-03-23T23:31:08.371Z,100073.41
2019-03-23T23:33:39.202Z,100073.96
2019-03-23T23:36:10.045Z,100073.70
2019-03-23T23:38:40.834Z,100069.19
2019-03-23T23:41:12.123Z,100059.25
2019-03-23T23:43:42.898Z,100063.25
2019-03-23T23:46:13.672Z,100058.27
2019-03-23T23:48:51.266Z,100059.53
2019-03-23T23:51:17.086Z,100053.42
2019-03-23T23:53:47.852Z,100055.01
2019-03-23T23:56:18.633Z,100056.00
2019-03-23T23:58:49.390Z,100059.06
